Time;durP1;ratioP1;P1;durP2;ratioP2;P2;SDS_P1;SDS_P2;PMS_P1;PMS_P2;Temp;Humidity;BMP_temperature;BMP_pressure;BME280_temperature;BME280_humidity;BME280_pressure;Samples;Min_cycle;Max_cycle;Signal;HPM_P1;HPM_P2
2022/07/26 00:01:31;;;;;;;11.50;10.55;;;;;;;22.21;67.75;100018.44;5126897;27;20043;-81
2022/07/26 00:03:56;;;;;;;14.52;13.43;;;;;;;22.21;67.16;100022.97;5122158;27;20058;-81
2022/07/26 00:06:22;;;;;;;12.40;11.20;;;;;;;22.14;67.79;100043.97;5124501;27;20115;-81
2022/07/26 00:08:48;;;;;;;11.75;10.57;;;;;;;22.12;67.47;100058.47;5123250;27;20035;-81
2022/07/26 00:11:13;;;;;;;11.20;10.10;;;;;;;22.07;66.85;100053.34;5121291;28;20190;-80
2022/07/26 00:13:39;;;;;;;13.15;10.52;;;;;;;22.01;66.73;100053.75;5125933;28;20141;-81
2022/07/26 00:16:04;;;;;;;10.80;9.85;;;;;;;22.00;66.55;100044.78;5128906;27;20031;-80
2022/07/26 00:18:30;;;;;;;11.20;10.30;;;;;;;21.94;66.41;100052.38;5108906;28;20034;-81
2022/07/26 00:20:55;;;;;;;10.82;9.82;;;;;;;21.92;67.30;100054.28;5123063;28;20041;-80
2022/07/26 00:23:21;;;;;;;11.35;10.55;;;;;;;21.81;67.10;100047.75;5129515;28;20039;-81
2022/07/26 00:25:46;;;;;;;10.75;9.75;;;;;;;21.83;66.76;100061.94;5131251;28;20486;-81
2022/07/26 00:28:12;;;;;;;10.50;9.70;;;;;;;21.81;67.65;100073.75;5129816;28;20037;-81
2022/07/26 00:30:38;;;;;;;10.73;9.82;;;;;;;21.80;66.76;100080.09;5127321;28;20050;-80
2022/07/26 00:33:04;;;;;;;9.75;8.98;;;;;;;21.75;66.85;100085.72;5125418;28;20438;-80
2022/07/26 00:35:30;;;;;;;10.20;9.30;;;;;;;21.67;67.54;100082.63;5128292;28;20070;-81
2022/07/26 00:37:56;;;;;;;11.60;10.50;;;;;;;21.54;67.98;100092.38;5128350;28;20413;-81
2022/07/26 00:40:21;;;;;;;16.13;14.50;;;;;;;21.35;68.55;100098.78;5114507;28;20035;-81
2022/07/26 00:42:46;;;;;;;10.38;9.52;;;;;;;21.42;67.02;100100.16;5127066;28;20046;-81
2022/07/26 00:45:13;;;;;;;9.52;8.70;;;;;;;21.49;66.71;100108.75;5132482;28;20042;-80
2022/07/26 00:47:38;;;;;;;10.02;9.18;;;;;;;21.35;67.02;100098.78;5130826;28;20114;-81
2022/07/26 00:50:06;;;;;;;9.68;8.85;;;;;;;21.36;66.86;100110.38;5132280;28;20103;-81
2022/07/26 00:52:31;;;;;;;8.98;8.13;;;;;;;21.40;65.74;100120.84;5130604;28;20039;-81
2022/07/26 00:54:57;;;;;;;11.38;9.10;;;;;;;21.29;64.27;100125.94;5127410;28;20034;-80
2022/07/26 00:57:23;;;;;;;8.60;7.57;;;;;;;21.20;64.48;100113.06;5114139;28;20034;-81
2022/07/26 00:59:49;;;;;;;8.30;7.53;;;;;;;21.19;64.32;100114.88;5129717;28;20057;-81
2022/07/26 01:02:14;;;;;;;8.85;7.95;;;;;;;21.19;64.40;100122.91;5124678;28;20040;-81
2022/07/26 01:04:43;;;;;;;8.65;7.88;;;;;;;21.20;64.52;100127.34;5125930;27;20043;-81
2022/07/26 01:07:08;;;;;;;9.98;9.18;;;;;;;21.09;65.23;100137.84;5128719;27;20048;-81
2022/07/26 01:09:34;;;;;;;9.20;8.30;;;;;;;21.05;64.87;100148.81;5131648;27;20035;-81
2022/07/26 01:11:59;;;;;;;8.68;7.97;;;;;;;20.94;65.16;100144.91;5109832;27;20039;-81
2022/07/26 01:14:25;;;;;;;8.30;7.68;;;;;;;20.96;65.54;100144.84;5131714;27;20038;-81
2022/07/26 01:16:51;;;;;;;9.15;8.32;;;;;;;20.97;65.55;100143.88;5130314;27;20032;-81
2022/07/26 01:19:17;;;;;;;9.07;8.05;;;;;;;21.05;65.19;100144.31;5112207;27;20046;-81
2022/07/26 01:21:42;;;;;;;8.23;7.43;;;;;;;21.11;64.96;100153.81;5112680;27;20046;-81
2022/07/26 01:24:08;;;;;;;8.43;7.70;;;;;;;21.19;64.75;100156.94;5128657;27;20401;-81
2022/07/26 01:26:33;;;;;;;9.00;8.20;;;;;;;21.26;65.13;100155.66;5124265;27;20035;-81
2022/07/26 01:28:58;;;;;;;12.30;7.28;;;;;;;21.36;64.54;100154.19;5132092;27;20110;-80
2022/07/26 01:31:24;;;;;;;8.85;8.15;;;;;;;21.40;63.72;100155.75;5131674;27;20070;-80
2022/07/26 01:33:50;;;;;;;10.60;9.70;;;;;;;21.39;64.70;100169.28;5114339;27;20023;-81
2022/07/26 01:36:15;;;;;;;8.80;8.00;;;;;;;21.42;63.84;100174.47;5136862;27;20092;-80
2022/07/26 01:38:41;;;;;;;8.93;8.05;;;;;;;21.39;64.29;100163.91;5134045;27;20032;-81
2022/07/26 01:41:07;;;;;;;9.27;8.38;;;;;;;21.36;65.50;100164.06;5131310;27;20031;-80
2022/07/26 01:43:32;;;;;;;9.18;8.27;;;;;;;21.31;65.41;100155.41;5129044;27;20035;-80
2022/07/26 01:45:57;;;;;;;8.35;7.57;;;;;;;21.26;66.00;100152.09;5134729;27;20114;-80
2022/07/26 01:48:23;;;;;;;10.38;9.57;;;;;;;21.19;65.92;100156.94;5131926;27;20033;-80
2022/07/26 01:50:48;;;;;;;10.48;7.85;;;;;;;21.26;66.31;100154.78;5114754;27;20074;-80
2022/07/26 01:53:13;;;;;;;10.07;8.98;;;;;;;21.30;65.84;100154.53;5113500;28;20035;-80
2022/07/26 01:55:39;;;;;;;9.30;8.40;;;;;;;21.32;66.49;100157.13;5116598;27;20031;-80
2022/07/26 01:58:05;;;;;;;9.73;8.88;;;;;;;21.30;66.66;100149.19;5109210;27;20085;-81
2022/07/26 02:00:32;;;;;;;10.52;9.57;;;;;;;21.29;67.50;100150.09;5116067;27;20083;-80
2022/07/26 02:02:57;;;;;;;9.73;8.73;;;;;;;21.30;67.12;100151.84;5111868;27;20038;-80
2022/07/26 02:05:22;;;;;;;10.63;9.60;;;;;;;21.31;66.74;100150.88;5098401;27;20052;-80
2022/07/26 02:07:48;;;;;;;9.75;9.05;;;;;;;21.32;66.52;100141.00;5113997;28;20039;-81
2022/07/26 02:10:14;;;;;;;9.27;8.30;;;;;;;21.30;66.49;100143.81;5115916;27;20031;-80
2022/07/26 02:12:39;;;;;;;9.80;8.85;;;;;;;21.22;66.58;100141.56;5126469;27;20042;-80
2022/07/26 02:15:06;;;;;;;11.80;8.57;;;;;;;21.22;66.54;100146.03;5133938;27;20027;-81
2022/07/26 02:17:32;;;;;;;9.27;8.38;;;;;;;21.21;66.60;100138.94;5112613;27;20049;-81
2022/07/26 02:19:57;;;;;;;9.15;8.32;;;;;;;21.15;67.29;100128.56;5132162;27;20031;-81
2022/07/26 02:22:23;;;;;;;8.18;7.53;;;;;;;21.14;66.63;100133.06;5131617;27;20043;-80
2022/07/26 02:24:49;;;;;;;8.73;7.88;;;;;;;21.02;67.56;100137.28;5129485;27;20057;-80
2022/07/26 02:27:14;;;;;;;9.57;8.75;;;;;;;21.00;67.42;100135.66;5125429;27;20035;-80
2022/07/26 02:29:40;;;;;;;8.68;7.88;;;;;;;21.01;66.96;100140.94;5127849;27;20024;-80
2022/07/26 02:32:06;;;;;;;9.73;8.80;;;;;;;21.08;66.96;100148.63;5127432;27;20047;-80
2022/07/26 02:34:31;;;;;;;9.20;8.30;;;;;;;21.10;67.54;100146.75;5128612;27;20164;-80
2022/07/26 02:36:57;;;;;;;9.40;8.60;;;;;;;21.06;68.25;100159.44;5129178;27;20505;-81
2022/07/26 02:39:26;;;;;;;10.13;9.00;;;;;;;21.09;67.73;100159.28;5128741;27;20128;-81
2022/07/26 02:41:52;;;;;;;10.55;9.25;;;;;;;21.14;68.14;100153.66;5109894;27;20046;-79
2022/07/26 02:44:18;;;;;;;10.48;9.32;;;;;;;21.19;67.21;100151.56;5133945;27;20039;-80
2022/07/26 02:46:43;;;;;;;10.75;9.60;;;;;;;21.23;67.79;100153.16;5128527;27;20040;-80
2022/07/26 02:49:08;;;;;;;9.40;8.45;;;;;;;21.22;67.41;100154.97;5108625;27;20088;-81
2022/07/26 02:51:34;;;;;;;10.30;9.27;;;;;;;21.19;67.68;100160.47;5126514;27;20043;-81
2022/07/26 02:53:59;;;;;;;10.77;9.77;;;;;;;21.15;67.81;100155.41;5123961;27;20027;-80
2022/07/26 02:56:24;;;;;;;10.35;9.40;;;;;;;21.10;68.61;100157.47;5128881;27;20039;-80
2022/07/26 02:58:50;;;;;;;9.85;8.95;;;;;;;21.05;69.10;100160.41;5127823;27;20062;-80
2022/07/26 03:01:15;;;;;;;9.38;8.60;;;;;;;21.02;69.52;100165.94;5110108;27;20091;-81
2022/07/26 03:03:40;;;;;;;9.82;8.80;;;;;;;21.07;68.89;100157.66;5125836;27;20039;-81
2022/07/26 03:06:06;;;;;;;10.43;9.50;;;;;;;21.05;69.92;100170.28;5128053;27;20064;-81
2022/07/26 03:08:31;;;;;;;9.98;9.07;;;;;;;21.07;69.47;100181.78;5121321;27;20034;-81
2022/07/26 03:10:56;;;;;;;10.30;9.27;;;;;;;20.93;70.35;100177.16;5116109;27;20077;-80
2022/07/26 03:13:22;;;;;;;11.30;8.65;;;;;;;20.87;70.52;100172.16;5124336;27;20084;-80
2022/07/26 03:15:47;;;;;;;10.20;9.23;;;;;;;20.80;70.94;100176.97;5123910;27;20028;-80
2022/07/26 03:18:12;;;;;;;9.77;8.98;;;;;;;20.78;72.10;100184.25;5127802;27;20095;-80
2022/07/26 03:20:38;;;;;;;12.50;11.27;;;;;;;20.77;72.34;100180.69;5132703;27;20042;-80
2022/07/26 03:23:03;;;;;;;11.95;10.75;;;;;;;20.83;72.03;100182.19;5093606;27;20031;-80
2022/07/26 03:25:28;;;;;;;14.30;12.45;;;;;;;20.80;72.81;100187.69;5126058;27;20096;-80
2022/07/26 03:27:55;;;;;;;15.73;11.85;;;;;;;20.85;72.35;100180.25;5113481;27;20080;-79
2022/07/26 03:30:22;;;;;;;16.98;13.52;;;;;;;20.92;72.38;100178.13;5131625;27;20042;-80
2022/07/26 03:32:47;;;;;;;14.02;10.80;;;;;;;20.96;72.39;100180.56;5106317;27;20156;-80
2022/07/26 03:35:12;;;;;;;12.90;11.65;;;;;;;20.93;71.92;100180.75;5110558;27;20028;-80
2022/07/26 03:37:38;;;;;;;13.73;12.00;;;;;;;20.90;72.70;100178.19;5127787;27;20055;-80
2022/07/26 03:40:06;;;;;;;15.57;12.75;;;;;;;20.96;72.00;100180.56;5130816;27;20035;-80
2022/07/26 03:42:31;;;;;;;13.20;11.65;;;;;;;21.01;72.77;100178.50;5123126;27;20493;-80
2022/07/26 03:44:56;;;;;;;12.68;10.82;;;;;;;21.06;71.32;100180.91;5129337;27;20049;-80
2022/07/26 03:47:22;;;;;;;15.95;11.70;;;;;;;20.97;72.50;100179.59;5128423;27;20118;-80
2022/07/26 03:49:47;;;;;;;14.73;11.65;;;;;;;20.99;71.83;100175.03;5128925;27;20118;-80
2022/07/26 03:52:12;;;;;;;10.52;9.63;;;;;;;21.05;71.54;100175.63;5127968;27;20059;-80
2022/07/26 03:54:38;;;;;;;11.63;10.50;;;;;;;21.10;70.94;100178.94;5132718;27;20039;-80
2022/07/26 03:57:03;;;;;;;14.85;9.55;;;;;;;21.08;70.89;100178.16;5105344;28;20042;-80
2022/07/26 03:59:28;;;;;;;12.35;10.57;;;;;;;21.04;71.64;100169.41;5106860;27;20035;-79
2022/07/26 04:01:54;;;;;;;12.02;10.75;;;;;;;21.08;71.08;100170.09;5120331;27;20056;-79
2022/07/26 04:04:19;;;;;;;10.90;9.80;;;;;;;21.16;70.71;100168.72;5091382;27;20058;-80
2022/07/26 04:06:46;;;;;;;13.73;9.85;;;;;;;21.17;70.68;100172.28;5088308;28;20039;-80
2022/07/26 04:09:12;;;;;;;11.10;10.20;;;;;;;21.13;70.39;100178.75;5106922;27;20050;-79
2022/07/26 04:11:38;;;;;;;11.68;10.60;;;;;;;21.15;71.07;100180.41;5121457;27;20539;-80
2022/07/26 04:14:04;;;;;;;11.40;10.20;;;;;;;21.18;70.41;100182.06;5119722;27;20051;-80
2022/07/26 04:16:30;;;;;;;12.02;10.77;;;;;;;21.21;70.45;100179.19;5127137;27;20484;-79
2022/07/26 04:18:55;;;;;;;10.93;9.50;;;;;;;21.29;69.65;100179.63;5102355;28;20039;-80
2022/07/26 04:21:21;;;;;;;12.80;11.07;;;;;;;21.33;69.68;100178.53;5123903;27;20035;-79
2022/07/26 04:23:46;;;;;;;11.45;10.32;;;;;;;21.33;70.36;100189.25;5103312;28;20047;-80
2022/07/26 04:26:13;;;;;;;14.00;10.90;;;;;;;21.32;70.10;100182.13;5104554;28;20035;-80
2022/07/26 04:28:39;;;;;;;12.65;10.52;;;;;;;21.30;70.48;100173.31;5122146;28;20076;-80
2022/07/26 04:31:04;;;;;;;13.80;11.15;;;;;;;21.28;71.43;100177.06;5104636;28;20064;-80
2022/07/26 04:33:30;;;;;;;10.65;9.60;;;;;;;21.26;70.69;100177.13;5119939;28;20081;-80
2022/07/26 04:35:55;;;;;;;11.40;10.32;;;;;;;21.31;70.48;100176.88;5104340;28;20187;-81
2022/07/26 04:38:21;;;;;;;11.57;10.02;;;;;;;21.41;70.11;100170.06;5124347;28;20550;-80
2022/07/26 04:40:46;;;;;;;11.57;10.43;;;;;;;21.49;69.58;100164.25;5106806;27;20457;-79
2022/07/26 04:43:11;;;;;;;14.30;9.75;;;;;;;21.56;70.32;100157.56;5108912;27;20090;-80
2022/07/26 04:45:37;;;;;;;10.80;9.80;;;;;;;21.50;70.70;100165.97;5101966;27;20069;-79
2022/07/26 04:48:02;;;;;;;11.05;10.05;;;;;;;21.44;71.54;100168.06;5108400;28;20081;-79
2022/07/26 04:50:28;;;;;;;11.32;9.07;;;;;;;21.51;70.27;100176.66;5108937;28;20035;-80
2022/07/26 04:52:54;;;;;;;10.20;9.05;;;;;;;21.50;70.57;100184.78;5129657;27;20141;-80
2022/07/26 04:55:20;;;;;;;10.00;9.10;;;;;;;21.49;70.82;100191.09;5130079;27;20105;-80
2022/07/26 04:57:46;;;;;;;13.65;11.10;;;;;;;21.45;71.87;100196.63;5121751;27;20034;-80
2022/07/26 05:00:13;;;;;;;12.10;10.88;;;;;;;21.49;71.22;100193.78;5104729;28;20051;-80
2022/07/26 05:02:39;;;;;;;13.38;11.10;;;;;;;21.53;71.74;100192.66;5127993;27;20046;-80
2022/07/26 05:05:06;;;;;;;12.13;10.20;;;;;;;21.56;71.92;100200.53;5134236;27;20031;-79
2022/07/26 05:07:41;;;;;;;18.55;10.23;;;;;;;21.64;71.08;100198.25;5126948;27;20032;-79
2022/07/26 05:10:08;;;;;;;12.30;11.02;;;;;;;21.67;71.19;100200.81;5120545;27;20390;-80
2022/07/26 05:12:33;;;;;;;12.50;11.20;;;;;;;21.71;71.16;100196.97;5126042;27;20040;-80
2022/07/26 05:14:59;;;;;;;13.13;11.82;;;;;;;21.80;70.63;100195.59;5128324;27;20035;-79
2022/07/26 05:17:24;;;;;;;14.95;11.30;;;;;;;21.91;70.42;100186.91;5128767;27;20110;-79
2022/07/26 05:19:49;;;;;;;14.20;12.73;;;;;;;21.93;70.34;100184.97;5124332;27;20126;-80
2022/07/26 05:22:15;;;;;;;12.70;11.35;;;;;;;21.95;70.24;100188.44;5125689;27;20039;-79
2022/07/26 05:24:40;;;;;;;16.98;11.52;;;;;;;21.95;71.16;100189.28;5107118;27;20045;-79
2022/07/26 05:27:05;;;;;;;13.48;11.75;;;;;;;22.03;70.25;100196.91;5124524;27;20035;-79
2022/07/26 05:29:31;;;;;;;13.10;11.90;;;;;;;22.10;70.71;100192.91;5126522;27;20043;-80
2022/07/26 05:31:56;;;;;;;12.85;10.90;;;;;;;22.16;70.32;100197.91;5124511;27;20047;-80
2022/07/26 05:34:23;;;;;;;12.30;11.10;;;;;;;22.21;71.06;100206.59;5127657;27;20031;-80
2022/07/26 05:36:49;;;;;;;15.43;13.75;;;;;;;22.19;71.11;100207.63;5120997;27;20152;-80
2022/07/26 05:39:14;;;;;;;13.70;10.68;;;;;;;22.27;70.80;100208.94;5127389;27;20066;-79
2022/07/26 05:41:40;;;;;;;18.00;12.50;;;;;;;22.31;70.77;100212.28;5122334;27;20048;-80
2022/07/26 05:44:05;;;;;;;13.63;11.65;;;;;;;22.39;71.17;100217.22;5124723;27;20035;-79
2022/07/26 05:46:31;;;;;;;13.10;11.35;;;;;;;22.44;70.45;100207.03;5125220;27;20048;-80
2022/07/26 05:48:56;;;;;;;17.58;13.80;;;;;;;22.45;71.51;100219.53;5109380;27;20043;-80
2022/07/26 05:51:21;;;;;;;14.18;12.65;;;;;;;22.55;70.85;100223.38;5120885;27;20038;-80
2022/07/26 05:53:47;;;;;;;17.90;12.52;;;;;;;22.56;71.12;100216.19;5122065;27;20454;-79
2022/07/26 05:56:12;;;;;;;13.45;12.15;;;;;;;22.56;70.40;100219.75;5123354;27;20771;-80
2022/07/26 05:58:37;;;;;;;13.13;11.68;;;;;;;22.48;71.00;100222.06;5107162;27;20485;-80
2022/07/26 06:01:03;;;;;;;14.63;13.15;;;;;;;22.54;70.85;100222.53;5130767;27;20046;-80
2022/07/26 06:03:30;;;;;;;13.15;11.95;;;;;;;22.55;69.96;100218.00;5106292;28;20043;-80
2022/07/26 06:05:57;;;;;;;13.65;10.55;;;;;;;22.39;70.70;100210.00;5109921;27;20063;-80
2022/07/26 06:08:24;;;;;;;16.67;13.95;;;;;;;22.40;71.10;100205.50;5108094;27;20035;-78
2022/07/26 06:10:51;;;;;;;12.98;11.15;;;;;;;22.54;70.07;100219.84;5108442;27;20045;-78
2022/07/26 06:13:17;;;;;;;12.40;11.20;;;;;;;22.53;69.97;100218.13;5108244;27;20045;-78
2022/07/26 06:15:43;;;;;;;14.70;11.43;;;;;;;22.51;70.05;100224.53;5124766;27;20114;-78
2022/07/26 06:18:09;;;;;;;12.10;10.90;;;;;;;22.47;69.47;100218.47;5127248;27;20035;-78
2022/07/26 06:20:38;;;;;;;11.68;10.00;;;;;;;22.56;69.51;100227.81;5121806;27;20046;-77
2022/07/26 06:23:03;;;;;;;11.95;10.68;;;;;;;22.61;68.99;100225.72;5109126;27;20035;-78
2022/07/26 06:25:29;;;;;;;14.52;9.93;;;;;;;22.66;67.55;100234.38;5121686;27;20058;-78
2022/07/26 06:27:54;;;;;;;10.30;9.23;;;;;;;22.52;67.53;100237.03;5127316;27;20034;-77
2022/07/26 06:30:20;;;;;;;11.05;9.95;;;;;;;22.57;67.84;100228.69;5123630;27;20397;-77
2022/07/26 06:32:45;;;;;;;11.77;10.48;;;;;;;22.65;67.81;100238.00;5121375;27;20043;-77
2022/07/26 06:35:11;;;;;;;10.00;8.95;;;;;;;22.85;65.98;100230.56;5125122;27;20035;-77
2022/07/26 06:37:38;;;;;;;10.85;9.85;;;;;;;22.85;65.84;100238.63;5123172;27;20478;-77
2022/07/26 06:40:07;;;;;;;9.88;8.88;;;;;;;22.95;65.28;100237.06;5123630;27;20041;-77
2022/07/26 06:42:33;;;;;;;11.35;10.05;;;;;;;22.94;63.59;100241.59;5124865;27;20038;-77
2022/07/26 06:44:59;;;;;;;26.85;13.80;;;;;;;22.81;59.75;100237.06;5121750;27;20031;-77
2022/07/26 06:47:25;;;;;;;17.02;11.68;;;;;;;22.65;60.70;100250.59;5124813;27;20126;-78
2022/07/26 06:49:50;;;;;;;10.45;8.73;;;;;;;22.64;61.07;100244.34;5122944;27;20489;-77
2022/07/26 06:52:16;;;;;;;9.77;8.52;;;;;;;22.58;60.62;100252.78;5123061;27;20039;-78
2022/07/26 06:54:41;;;;;;;9.98;8.95;;;;;;;22.60;60.41;100261.63;5124245;27;20443;-77
2022/07/26 06:57:07;;;;;;;12.25;8.02;;;;;;;22.74;59.80;100255.41;5122626;27;20039;-77
2022/07/26 06:59:32;;;;;;;10.07;9.07;;;;;;;22.80;58.71;100251.50;5125412;27;20386;-77
2022/07/26 07:01:57;;;;;;;10.20;9.18;;;;;;;22.94;57.65;100255.03;5118150;27;20512;-78
2022/07/26 07:04:23;;;;;;;9.70;8.00;;;;;;;23.15;56.93;100252.88;5123822;27;20159;-78
2022/07/26 07:06:48;;;;;;;9.93;9.13;;;;;;;23.36;56.97;100255.16;5123328;27;20031;-78
2022/07/26 07:09:13;;;;;;;15.75;8.32;;;;;;;23.61;55.96;100249.94;5116940;27;20047;-77
2022/07/26 07:11:39;;;;;;;10.20;8.82;;;;;;;23.73;54.18;100258.22;5118515;27;20154;-78
2022/07/26 07:14:04;;;;;;;11.10;8.57;;;;;;;23.78;53.76;100251.56;5103462;27;20035;-78
2022/07/26 07:16:29;;;;;;;10.45;9.40;;;;;;;23.88;52.68;100249.13;5115477;27;20036;-77
2022/07/26 07:18:55;;;;;;;9.52;8.82;;;;;;;23.99;52.44;100257.34;5096089;27;20027;-77
2022/07/26 07:21:20;;;;;;;9.32;8.52;;;;;;;24.09;51.86;100252.22;5122593;27;20028;-77
2022/07/26 07:23:45;;;;;;;12.43;8.25;;;;;;;24.13;52.06;100252.88;5123101;27;20047;-77
2022/07/26 07:26:11;;;;;;;12.38;9.00;;;;;;;24.38;52.01;100244.84;5091970;27;20046;-78
2022/07/26 07:28:39;;;;;;;10.60;9.40;;;;;;;24.59;51.18;100247.09;5122691;27;20085;-78
2022/07/26 07:31:05;;;;;;;10.05;9.15;;;;;;;24.52;50.23;100245.78;5104590;27;20108;-78
2022/07/26 07:33:30;;;;;;;9.90;8.90;;;;;;;24.53;50.57;100245.69;5106077;27;20125;-77
2022/07/26 07:35:55;;;;;;;8.80;8.00;;;;;;;24.64;49.77;100244.94;5123125;27;20047;-78
2022/07/26 07:38:21;;;;;;;11.40;9.50;;;;;;;24.77;49.32;100236.84;5123503;27;20035;-78
2022/07/26 07:40:46;;;;;;;12.02;9.23;;;;;;;24.70;49.13;100256.16;5104742;27;20068;-77
2022/07/26 07:43:11;;;;;;;9.73;8.82;;;;;;;24.53;49.37;100236.72;5102748;28;20042;-78
2022/07/26 07:45:37;;;;;;;9.48;8.48;;;;;;;24.66;49.77;100240.31;5124520;27;20035;-78
2022/07/26 07:48:02;;;;;;;10.60;9.02;;;;;;;24.65;48.93;100241.25;5120916;27;20035;-77
2022/07/26 07:50:28;;;;;;;10.02;9.25;;;;;;;24.68;48.62;100247.31;5105813;27;20118;-78
2022/07/26 07:52:53;;;;;;;10.70;9.57;;;;;;;24.43;49.23;100242.72;5119327;27;20105;-78
2022/07/26 07:55:18;;;;;;;11.20;8.85;;;;;;;24.52;48.74;100245.78;5124190;27;20039;-78
2022/07/26 07:57:43;;;;;;;10.35;9.48;;;;;;;24.57;48.39;100246.31;5126848;27;20111;-78
2022/07/26 08:00:11;;;;;;;11.75;9.40;;;;;;;24.72;47.57;100245.25;5129280;27;20039;-78
2022/07/26 08:02:39;;;;;;;10.40;9.40;;;;;;;24.55;48.12;100245.56;5120570;27;20036;-78
2022/07/26 08:05:06;;;;;;;10.65;9.32;;;;;;;24.43;48.02;100248.09;5108670;27;20032;-78
2022/07/26 08:07:32;;;;;;;11.30;9.85;;;;;;;24.39;48.57;100251.13;5128769;27;20030;-78
2022/07/26 08:09:57;;;;;;;11.38;10.30;;;;;;;24.46;47.75;100247.94;5122856;27;20083;-77
2022/07/26 08:12:23;;;;;;;10.65;9.65;;;;;;;24.26;46.92;100254.66;5103363;28;20027;-78
2022/07/26 08:14:48;;;;;;;13.38;9.93;;;;;;;24.26;46.94;100261.88;5124712;27;20051;-78
2022/07/26 08:17:13;;;;;;;10.07;9.20;;;;;;;24.23;47.53;100259.38;5122147;27;20042;-78
2022/07/26 08:19:39;;;;;;;10.23;9.43;;;;;;;24.29;47.57;100253.59;5089515;28;20023;-78
2022/07/26 08:22:07;;;;;;;11.00;10.18;;;;;;;24.29;47.30;100248.19;5124600;28;20043;-78
2022/07/26 08:24:32;;;;;;;10.93;10.13;;;;;;;24.22;47.44;100263.91;5122095;28;20114;-78
2022/07/26 08:26:57;;;;;;;17.52;9.57;;;;;;;24.23;47.72;100262.06;5126315;28;20062;-78
2022/07/26 08:29:22;;;;;;;9.27;8.68;;;;;;;24.44;47.07;100257.06;5121422;28;20625;-78
2022/07/26 08:31:49;;;;;;;10.27;9.30;;;;;;;24.46;47.07;100253.31;5127237;28;20481;-78
2022/07/26 08:34:17;;;;;;;10.85;9.98;;;;;;;24.49;46.40;100252.25;5126730;28;20039;-78
2022/07/26 08:36:42;;;;;;;11.15;9.75;;;;;;;24.34;47.41;100254.16;5125182;28;20402;-78
2022/07/26 08:39:08;;;;;;;11.43;10.27;;;;;;;24.37;47.11;100262.03;5123168;28;20031;-78
2022/07/26 08:41:33;;;;;;;10.63;9.70;;;;;;;24.50;46.69;100272.88;5122969;28;20047;-78
2022/07/26 08:44:10;;;;;;;10.38;9.60;;;;;;;24.29;46.34;100277.88;5129891;28;20483;-78
2022/07/26 08:46:37;;;;;;;12.32;10.32;;;;;;;24.31;46.14;100275.03;5104566;28;20039;-77
2022/07/26 08:49:05;;;;;;;10.50;9.40;;;;;;;24.35;46.40;100272.03;5086970;28;20027;-78
2022/07/26 08:51:32;;;;;;;12.15;10.90;;;;;;;24.65;46.11;100269.13;5127753;28;20046;-78
2022/07/26 08:53:59;;;;;;;12.07;10.70;;;;;;;24.88;46.15;100267.50;5124822;28;20042;-78
2022/07/26 08:56:25;;;;;;;11.13;10.20;;;;;;;24.87;45.20;100265.78;5124334;28;20035;-78
2022/07/26 08:58:50;;;;;;;11.63;10.90;;;;;;;24.94;46.21;100285.09;5124185;28;20038;-78
2022/07/26 09:01:16;;;;;;;12.23;11.25;;;;;;;25.31;44.29;100275.31;5122954;28;20040;-78
2022/07/26 09:03:43;;;;;;;11.90;10.93;;;;;;;25.40;43.17;100281.88;5124915;28;20036;-78
2022/07/26 09:06:15;;;;;;;11.15;10.05;;;;;;;25.14;43.46;100270.22;5098510;28;20036;-78
2022/07/26 09:08:41;;;;;;;10.80;9.88;;;;;;;25.06;43.72;100267.19;5105988;28;20038;-78
2022/07/26 09:11:25;;;;;;;10.40;9.50;;;;;;;25.01;43.63;100263.97;5107152;28;20039;-78
2022/07/26 09:14:01;;;;;;;10.48;9.35;;;;;;;24.81;42.99;100273.44;5123063;28;20066;-78
2022/07/26 09:16:27;;;;;;;10.65;9.85;;;;;;;24.64;43.72;100272.78;5121325;28;20080;-78
2022/07/26 09:18:53;;;;;;;11.73;10.52;;;;;;;24.49;44.62;100269.28;5106266;28;20042;-78
2022/07/26 09:21:35;;;;;;;9.77;8.98;;;;;;;24.46;44.41;100279.44;5105021;28;20056;-78
2022/07/26 09:24:00;;;;;;;14.80;9.18;;;;;;;24.26;44.95;100278.03;5074990;28;20070;-78
2022/07/26 09:26:26;;;;;;;10.90;10.07;;;;;;;24.17;45.35;100284.94;5107220;27;20106;-78
2022/07/26 09:29:02;;;;;;;12.15;11.18;;;;;;;24.64;45.28;100285.41;5110436;27;20035;-78
2022/07/26 09:31:27;;;;;;;11.43;10.63;;;;;;;25.12;44.59;100281.09;5125427;27;20039;-78
2022/07/26 09:33:53;;;;;;;11.98;11.23;;;;;;;25.54;42.91;100272.78;5106203;27;20035;-81
2022/07/26 09:36:19;;;;;;;12.13;11.05;;;;;;;25.69;42.28;100277.06;5128239;27;20035;-78
2022/07/26 09:38:49;;;;;;;12.63;11.50;;;;;;;25.62;42.01;100294.69;5129984;27;20035;-78
2022/07/26 09:41:31;;;;;;;11.35;10.65;;;;;;;25.44;41.52;100288.81;5136713;27;20043;-78
2022/07/26 09:43:59;;;;;;;11.52;10.60;;;;;;;25.42;42.02;100277.25;5126558;27;20039;-79
2022/07/26 09:46:26;;;;;;;11.68;10.73;;;;;;;25.47;41.05;100287.72;5109302;28;20040;-79
2022/07/26 09:48:57;;;;;;;10.75;10.05;;;;;;;25.42;40.39;100271.84;5130253;27;20065;-79
2022/07/26 09:51:42;;;;;;;9.43;8.63;;;;;;;25.26;40.56;100280.19;5098042;27;20059;-79
2022/07/26 09:54:09;;;;;;;11.00;10.30;;;;;;;25.05;40.89;100287.09;5125249;27;20260;-79
2022/07/26 09:56:41;;;;;;;9.70;8.93;;;;;;;25.23;40.14;100296.63;5125816;27;20032;-79
2022/07/26 09:59:07;;;;;;;11.07;10.27;;;;;;;25.18;40.90;100292.47;5108625;27;20087;-80
2022/07/26 10:01:32;;;;;;;12.18;10.63;;;;;;;24.96;42.62;100293.09;5128658;27;20486;-78
2022/07/26 10:03:58;;;;;;;11.18;10.48;;;;;;;25.02;42.99;100289.97;5099252;27;20083;-79
2022/07/26 10:06:23;;;;;;;10.88;10.07;;;;;;;25.06;42.03;100300.44;5127305;27;20039;-79
2022/07/26 10:08:49;;;;;;;10.95;10.15;;;;;;;25.27;42.35;100284.59;5101844;27;20417;-79
2022/07/26 10:11:16;;;;;;;11.95;11.05;;;;;;;25.79;41.08;100299.75;5119533;27;20418;-78
2022/07/26 10:13:41;;;;;;;10.82;10.13;;;;;;;26.23;39.68;100297.47;5127152;27;20073;-78
2022/07/26 10:16:27;;;;;;;12.30;11.38;;;;;;;26.33;39.02;100273.25;5109822;27;20035;-80
2022/07/26 10:18:52;;;;;;;11.70;10.90;;;;;;;26.43;39.20;100283.25;5098512;27;20030;-80
2022/07/26 10:21:19;;;;;;;11.35;10.45;;;;;;;26.57;38.18;100279.53;5113414;27;20035;-80
2022/07/26 10:23:45;;;;;;;12.60;11.68;;;;;;;26.65;38.39;100274.41;5131409;27;20126;-80
2022/07/26 10:26:30;;;;;;;12.05;11.02;;;;;;;26.52;38.37;100281.75;5131618;27;20054;-79
2022/07/26 10:29:17;;;;;;;12.18;11.40;;;;;;;26.21;37.90;100286.72;5120736;27;20031;-79
2022/07/26 10:31:48;;;;;;;12.13;11.32;;;;;;;26.36;37.95;100287.44;5103750;27;20047;-79
2022/07/26 10:34:36;;;;;;;11.63;10.90;;;;;;;26.27;38.54;100281.84;5110121;27;20069;-80
2022/07/26 10:37:04;;;;;;;11.68;11.07;;;;;;;26.15;38.51;100289.91;5109324;27;20037;-80
2022/07/26 10:39:30;;;;;;;11.52;10.73;;;;;;;25.96;39.11;100289.53;5107932;27;20035;-79
2022/07/26 10:42:00;;;;;;;12.15;11.02;;;;;;;25.66;39.38;100306.16;5098709;28;20028;-79
2022/07/26 10:44:28;;;;;;;12.40;11.60;;;;;;;25.52;40.30;100291.81;5122649;27;20036;-78
2022/07/26 10:47:07;;;;;;;15.02;13.57;;;;;;;26.00;39.49;100301.88;5129811;27;20042;-79
2022/07/26 10:49:38;;;;;;;11.32;10.57;;;;;;;26.42;38.33;100296.91;5126062;27;20062;-80
2022/07/26 10:52:08;;;;;;;;;;;;;;;26.42;37.23;100284.25;5133185;27;20049;-79
2022/07/26 10:54:55;;;;;;;11.05;10.45;;;;;;;26.40;37.61;100283.50;5129672;27;19915;-80
2022/07/26 10:57:33;;;;;;;11.85;10.77;;;;;;;26.37;38.06;100282.88;5124734;27;20443;-80
2022/07/26 11:00:00;;;;;;;12.43;11.73;;;;;;;26.84;37.25;100281.94;5119791;27;20040;-77
2022/07/26 11:02:31;;;;;;;11.75;11.13;;;;;;;27.20;37.46;100273.78;5119721;27;20084;-77
2022/07/26 11:05:15;;;;;;;12.13;11.43;;;;;;;26.93;36.87;100276.78;5126709;27;20095;-77
2022/07/26 11:07:56;;;;;;;12.48;11.68;;;;;;;26.58;37.11;100275.84;5105382;27;20096;-77
2022/07/26 11:10:30;;;;;;;11.35;10.65;;;;;;;26.57;36.24;100287.66;5121935;27;20095;-77
2022/07/26 11:13:00;;;;;;;12.20;11.30;;;;;;;26.51;36.02;100277.25;5122349;27;20038;-77